Archival Weather

Los Angeles Intl

Los Angeles, California (KLAX)

Report from: Thursday, September 21, 2023 6:53 PM PDT
Current time: Saturday, March 2, 2024 2:54 AM PST

Current weather – Weather history – Daily summaries
Weather forecast

Temperature18.9°C (66.0°F)
Dew point13.9°C (57.0°F)
Winds 11 kts (5.7 m/s, 12.7 mph) West (260°)
Visibility10 mi. (16.1 km)
Clouds Few clouds 4,500 ft. (1,372 m)
Few clouds 25,000 ft. (7,620 m)
Altimeter29.93 in.Hg (1014 mB)
Relative humidity73 %
Density altitude676 ft. (206 m)
Sea-level pressure101.3 kPa (1013 mB, 29.92 in.Hg)
Remarks Automated weather observing station with precipitation discriminator
Flight conditions Visual Meteorological Conditions
Raw dataKLAX 220153Z 26011KT 10SM FEW045 FEW250 19/14 A2993 RMK AO2 SLP133 T01890139
An error has occurred. This application may no longer respond until reloaded. Reload 🗙